This demonstration page uses our WeatherBlox Daily Observations layout. Learn more.

Left ArrowRight Arrow

Hourly Observations for August 6, 2020

Temp ( °F °C ) Dew Point ( °F °C ) Humidity (%) Winds ( mph kmh ) Pressure ( in mb ) Visibility ( mi km ) Precip ( " mm )
12:53 am 00:53 Clear 57 13.9 55 12.8 93 93 N N/A 30.1 1019 10 16.0934 N/A
1:53 am 01:53 Clear 56 13.3 55 12.8 97 97 N N/A 30.1 1019 10 16.0934 N/A
2:53 am 02:53 Clear 56 13.3 54 12.2 93 93 WNW 3 6 30.1 1019 10 16.0934 N/A
3:53 am 03:53 Clear 56 13.3 55 12.8 97 97 N N/A 30.1 1019 10 16.0934 N/A
4:53 am 04:53 Mostly Cloudy 57 13.9 55 12.8 93 93 N N/A 30.1 1019 10 16.0934 N/A
5:53 am 05:53 Mostly Cloudy 57 13.9 55 12.8 93 93 N N/A 30.1 1019 10 16.0934 N/A
6:53 am 06:53 Mostly Cloudy 57 13.9 56 13.3 96 96 N N/A 30.11 1020 10 16.0934 N/A
7:53 am 07:53 Mostly Cloudy 59 15 58 14.4 96 96 N N/A 30.13 1020 10 16.0934 N/A
8:53 am 08:53 Partly Cloudy 65 18.3 58 14.4 78 78 VRB 3 6 30.13 1020 10 16.0934 N/A
9:53 am 09:53 Mostly Cloudy 69 20.6 58 14.4 68 68 N N/A 30.13 1020 10 16.0934 N/A
10:53 am 10:53 Mostly Cloudy 71 21.7 58 14.4 63 63 ENE 5 7 30.13 1020 10 16.0934 N/A
11:53 am 11:53 Cloudy 75 23.9 59 15 58 58 N N/A 30.13 1020 10 16.0934 N/A
12:53 pm 12:53 Cloudy 76 24.4 59 15 56 56 ENE 7 11 30.12 1020 10 16.0934 N/A
1:53 pm 13:53 Mostly Sunny 78 25.6 60 15.6 54 54 VRB 3 6 30.11 1020 10 16.0934 N/A
2:53 pm 14:53 Mostly Cloudy 78 25.6 59 15 52 52 ENE 6 9 30.1 1019 10 16.0934 N/A
3:53 pm 15:53 Mostly Cloudy 77 25 60 15.6 56 56 NNW 7 11 30.09 1019 10 16.0934 N/A
4:53 pm 16:53 Mostly Cloudy 77 25 60 15.6 56 56 NNW 5 7 30.08 1019 10 16.0934 N/A
5:53 pm 17:53 Cloudy 77 25 60 15.6 56 56 N 6 9 30.08 1019 10 16.0934 N/A
6:53 pm 18:53 Mostly Cloudy 76 24.4 60 15.6 58 58 N 3 6 30.07 1018 10 16.0934 N/A
7:53 pm 19:53 Mostly Cloudy 75 23.9 59 15 58 58 N 6 9 30.08 1019 10 16.0934 N/A
8:53 pm 20:53 Cloudy 70 21.1 62 16.7 76 76 N 3 6 30.08 1019 10 16.0934 N/A
9:53 pm 21:53 Mostly Clear 66 18.9 60 15.6 81 81 N 3 6 30.08 1019 10 16.0934 N/A
10:53 pm 22:53 Clear 62 16.7 59 15 90 90 N N/A 30.09 1019 10 16.0934 N/A
11:53 pm 23:53 Cloudy 64 17.8 61 16.1 90 90 N N/A 30.09 1019 10 16.0934 N/A

Powered by AerisWeather